الصفحة الرئيسية
METAR-TAF:

METAR-TAF

مطار :

Quaqtaq, كيبك, كندا

دائرة عرض: 61-03N, خط طول: 069-38W, ارتفاع: 30 متر

مراقبة الطقس الحالي

تاريخ ووقت الإصدار 19ساعات و 44 دقيقة قبل الساعة 21:00UTC
ريح 9 عقدة من الجنوب/الجنوب الغربي
درجة الحرارة 11°درجة مئوية
الرطوبة 76%
ضغط 996 hPa
الرؤية: 24.1 كم
غيوم قليلة على ارتفاع 700 قدم
ملبد بالغيوم على ارتفاع 1400 قدم

METAR: CYHA 142100Z 21009KT 15SM FEW007 OVC014 11/07 A2942 RMK SF1SC8 SF TR LAST OBS/NEXT 151200UTC SLP965

زمن: 12:44 (16:44 UTC)

توقعات

تاريخ ووقت الإصدار 21ساعات و 38 دقيقة قبل الساعة 19:06UTC
التوقعات صالحة من14 الساعة 19 UTC إلى 14 الساعة 21 UTC
ريح 7 عقدة من الغرب/الجنوب الغربي
الرؤية: 10 كم
غيوم قليلة على ارتفاع 700 قدم
غيوم متفرقة على ارتفاع 1500 قدم
غيوم مفككة على ارتفاع 5000 قدم
مؤقت
من 14 الساعة 19 UTC إلى 14 الساعة 21 UTC
غيوم مفككة على ارتفاع 700 قدم
ملبد بالغيوم على ارتفاع 1500 قدم

TAF: CYHA 141906Z 1419/1421 24007KT P6SM FEW007 SCT015 BKN050 TEMPO 1419/1421 BKN007 OVC015 RMK NXT FCST BY 151400Z

أرصاد الطقس والتوقعات من أكثر من 4000 مطار (تقارير الطقس للمطار METAR والتنبؤ بالطقس بالمطارTAF).

المحطات المتاحة هي النقط الصفراء والحمراء على الخريطة.

حرك المؤشر فوق النقطة لمعرفة اسم المحطة.

ثم انقر لمعرفة أرصاد وتوقعات الطقس.

لتغيير الخارطة: اضغط على الأزرار الخضراء مع رمز الصليب الأسود للتكبير. على الزر الأخضر مع شرطة للتصغير، أو على الأسهم الخضراء للخرائط المجاورة.


METAR-TAF: